Pinner, United Kingdom
Current Conditions -  °F | °C
As of 11:50 PM on Monday 24 Nov 2014 (Local Time) from EGWU Reporting Station
Scattered Clouds Scattered Clouds  
Wind Chill: 32°   Ceiling: Unl
Heat Index: 32°   Visibility: 2.1mi
Dew Point: 32°   Wind: 2mph
Humidity: 100%   Direction: 340°NNW
Pressure: 30.33"   Gusts: NA
Location:  51.59°N, 0.38°W
Report Text: EGWU 242350Z AUTO 34002KT 3400 // SCT230/// M00/M00 Q1027
Loading
Personal Weather Stations






























Interactive Weather Map New forecast layout! Learn more

10-Day Weather Forecast

Advertisements
Track Severe Weather on mobile